createdAt,value
2023-02-28T00:01:30.472Z,4.10
2023-02-28T00:03:58.888Z,3.38
2023-02-28T00:06:30.587Z,2.53
2023-02-28T00:08:59.587Z,3.03
2023-02-28T00:11:30.749Z,2.47
2023-02-28T00:13:58.897Z,2.30
2023-02-28T00:16:26.760Z,1.58
2023-02-28T00:18:54.801Z,1.70
2023-02-28T00:21:22.929Z,2.03
2023-02-28T00:23:50.807Z,1.48
2023-02-28T00:26:21.589Z,1.80
2023-02-28T00:28:50.840Z,1.73
2023-02-28T00:31:19.103Z,1.50
2023-02-28T00:33:47.299Z,1.70
2023-02-28T00:36:16.253Z,1.70
2023-02-28T00:38:44.238Z,1.30
2023-02-28T00:41:12.078Z,1.50
2023-02-28T00:43:40.586Z,1.63
2023-02-28T00:46:08.639Z,1.55
2023-02-28T00:48:37.095Z,1.63
2023-02-28T00:51:05.446Z,1.52
2023-02-28T00:53:33.912Z,1.65
2023-02-28T00:56:01.951Z,2.35
2023-02-28T00:58:29.900Z,1.13
2023-02-28T04:47:48.290Z,1.35
2023-02-28T04:50:16.348Z,1.50
2023-02-28T04:52:44.104Z,1.60
2023-02-28T04:55:12.277Z,1.88
2023-02-28T04:57:39.981Z,1.45
2023-02-28T05:00:12.701Z,1.77
2023-02-28T05:05:57.367Z,1.40
2023-02-28T05:08:26.357Z,1.60
2023-02-28T05:10:54.393Z,1.77
2023-02-28T05:13:22.141Z,1.58
2023-02-28T05:15:49.978Z,1.27
2023-02-28T05:18:17.903Z,1.60
2023-02-28T05:20:45.697Z,1.67
2023-02-28T05:23:14.602Z,1.60
2023-02-28T05:25:43.092Z,1.38
2023-02-28T05:28:11.212Z,2.05
2023-02-28T05:30:39.020Z,2.30
2023-02-28T05:33:07.040Z,1.80
2023-02-28T05:35:34.935Z,2.00
2023-02-28T05:38:02.990Z,1.85
2023-02-28T05:40:30.865Z,1.80
2023-02-28T05:42:58.757Z,2.17
2023-02-28T05:45:26.540Z,2.17
2023-02-28T05:47:57.454Z,2.72
2023-02-28T05:50:25.183Z,2.90
2023-02-28T05:52:53.577Z,2.50
2023-02-28T05:55:21.689Z,2.78
2023-02-28T05:57:49.649Z,2.30
2023-02-28T06:00:18.964Z,2.50
2023-02-28T06:02:46.843Z,2.10
2023-02-28T06:05:19.077Z,3.08
2023-02-28T06:07:46.830Z,2.40
2023-02-28T06:10:15.124Z,2.80
2023-02-28T06:12:43.169Z,3.42
2023-02-28T06:15:15.991Z,3.20
2023-02-28T06:17:44.907Z,2.75
2023-02-28T06:20:16.680Z,2.53
2023-02-28T06:22:44.735Z,2.80
2023-02-28T06:25:12.717Z,3.80
2023-02-28T06:27:40.498Z,3.80
2023-02-28T06:30:13.804Z,3.67
2023-02-28T06:32:41.666Z,3.05
2023-02-28T06:35:09.752Z,3.13
2023-02-28T06:37:38.396Z,3.22
2023-02-28T06:40:08.045Z,2.83
2023-02-28T06:42:35.934Z,3.53
2023-02-28T06:45:10.471Z,2.80
2023-02-28T06:47:40.014Z,3.40
2023-02-28T06:50:10.579Z,2.92
2023-02-28T06:52:38.782Z,2.63
2023-02-28T06:55:08.425Z,2.35
2023-02-28T06:57:37.252Z,2.78
2023-02-28T07:00:08.840Z,2.80
2023-02-28T07:02:43.125Z,2.55
2023-02-28T07:05:10.968Z,3.28
2023-02-28T07:07:41.768Z,2.50
2023-02-28T07:10:10.571Z,2.65
2023-02-28T07:12:38.868Z,3.70
2023-02-28T07:15:07.645Z,3.42
2023-02-28T07:17:35.585Z,3.58
2023-02-28T07:20:05.644Z,4.45
2023-02-28T07:22:33.383Z,4.68
2023-02-28T07:25:01.155Z,4.07
2023-02-28T07:27:29.084Z,3.67
2023-02-28T07:29:56.913Z,3.80
2023-02-28T07:32:24.908Z,2.70
2023-02-28T07:34:52.953Z,2.00
2023-02-28T07:37:21.165Z,2.85
2023-02-28T07:39:49.779Z,2.47
2023-02-28T07:42:17.530Z,2.50
2023-02-28T07:44:45.725Z,2.10
2023-02-28T07:47:13.699Z,2.15
2023-02-28T07:49:41.505Z,2.13
2023-02-28T07:52:11.361Z,1.90
2023-02-28T07:54:40.200Z,2.05
2023-02-28T07:57:11.620Z,1.60
2023-02-28T07:59:39.421Z,2.13
2023-02-28T08:02:07.636Z,2.30
2023-02-28T08:04:36.718Z,2.20
2023-02-28T08:07:04.676Z,2.05
2023-02-28T08:09:32.647Z,2.28
2023-02-28T08:12:00.410Z,2.05
2023-02-28T08:14:28.616Z,2.08
2023-02-28T08:16:56.890Z,2.00
2023-02-28T08:19:24.967Z,1.63
2023-02-28T08:21:52.806Z,1.98
2023-02-28T08:24:20.597Z,1.77
2023-02-28T08:26:48.444Z,2.08
2023-02-28T08:29:16.378Z,1.95
2023-02-28T08:31:44.524Z,2.20
2023-02-28T08:34:14.507Z,1.90
2023-02-28T08:36:43.899Z,1.80
2023-02-28T08:39:16.613Z,1.80
2023-02-28T08:41:46.066Z,1.80
2023-02-28T08:44:14.889Z,1.67
2023-02-28T08:46:42.869Z,1.50
2023-02-28T08:49:12.891Z,1.55
2023-02-28T08:51:40.963Z,1.92
2023-02-28T08:54:13.669Z,1.50
2023-02-28T08:56:41.660Z,1.65
2023-02-28T08:59:11.423Z,1.80
2023-02-28T09:01:39.443Z,1.88
2023-02-28T09:04:09.764Z,2.42
2023-02-28T09:06:37.921Z,1.85
2023-02-28T09:09:07.703Z,1.58
2023-02-28T09:11:36.801Z,2.03
2023-02-28T09:14:05.014Z,1.98
2023-02-28T09:16:36.893Z,2.05
2023-02-28T09:19:05.224Z,1.92
2023-02-28T09:21:33.396Z,2.15
2023-02-28T09:24:01.379Z,1.80
2023-02-28T09:26:38.975Z,1.55
2023-02-28T09:29:12.407Z,1.33
2023-02-28T09:31:40.465Z,1.60
2023-02-28T09:34:09.071Z,1.40
2023-02-28T09:36:45.225Z,1.90
2023-02-28T09:39:16.899Z,1.20
2023-02-28T09:41:52.140Z,1.73
2023-02-28T09:44:49.792Z,1.35
2023-02-28T09:47:20.828Z,2.03
2023-02-28T09:49:49.761Z,1.73
2023-02-28T09:52:23.553Z,1.80
2023-02-28T09:54:51.473Z,1.98
2023-02-28T09:57:40.300Z,1.45
2023-02-28T10:00:11.393Z,1.85
2023-02-28T10:02:50.195Z,1.60
2023-02-28T10:05:40.581Z,1.73
2023-02-28T10:08:30.421Z,1.40
2023-02-28T10:11:05.687Z,1.50
2023-02-28T10:14:13.985Z,1.65
2023-02-28T10:16:49.189Z,1.27
2023-02-28T10:19:38.540Z,1.75
2023-02-28T10:22:36.357Z,1.23
2023-02-28T10:25:20.996Z,1.25
2023-02-28T10:27:48.760Z,1.10
2023-02-28T10:30:16.686Z,1.30
2023-02-28T10:32:54.841Z,0.93
2023-02-28T10:35:24.762Z,1.20
2023-02-28T10:37:56.998Z,0.85
2023-02-28T10:40:24.753Z,0.90
2023-02-28T10:43:15.912Z,1.15
2023-02-28T10:46:27.070Z,1.80
2023-02-28T10:49:21.711Z,1.13
2023-02-28T10:51:55.998Z,1.00
2023-02-28T10:54:36.551Z,0.93
2023-02-28T10:57:19.605Z,1.70
2023-02-28T10:59:51.892Z,1.25
2023-02-28T11:02:39.513Z,1.30
2023-02-28T11:05:31.480Z,1.23
2023-02-28T11:08:08.125Z,1.40
2023-02-28T11:10:36.563Z,0.90
2023-02-28T11:13:05.090Z,1.40
2023-02-28T11:15:35.463Z,1.20
2023-02-28T11:18:14.022Z,1.42
2023-02-28T11:20:42.350Z,1.63
2023-02-28T11:23:14.799Z,1.25
2023-02-28T11:25:49.825Z,1.40
2023-02-28T11:28:35.360Z,1.30
2023-02-28T11:31:23.627Z,1.02
2023-02-28T11:33:57.111Z,1.23
2023-02-28T11:36:28.618Z,1.30
2023-02-28T11:39:05.542Z,1.45
2023-02-28T11:42:09.099Z,1.00
2023-02-28T11:44:42.904Z,1.50
2023-02-28T11:47:16.571Z,1.45
2023-02-28T11:49:57.249Z,1.70
2023-02-28T11:52:52.756Z,1.55
2023-02-28T11:55:43.296Z,1.50
2023-02-28T11:58:33.119Z,1.40
2023-02-28T12:01:17.701Z,1.40
2023-02-28T12:04:18.243Z,1.63
2023-02-28T12:07:01.138Z,1.30
2023-02-28T12:09:47.681Z,1.40
2023-02-28T12:12:40.360Z,1.35
2023-02-28T12:15:34.056Z,1.40
2023-02-28T12:18:11.605Z,1.30
2023-02-28T12:21:03.126Z,1.35
2023-02-28T12:23:57.655Z,1.52
2023-02-28T12:26:48.563Z,1.73
2023-02-28T12:29:24.073Z,1.60
2023-02-28T12:32:12.737Z,1.30
2023-02-28T12:35:14.601Z,1.70
2023-02-28T12:37:51.710Z,1.70
2023-02-28T12:40:25.088Z,1.30
2023-02-28T12:43:01.997Z,1.70
2023-02-28T12:45:51.529Z,1.80
2023-02-28T12:48:47.330Z,1.40
2023-02-28T12:51:16.507Z,1.90
2023-02-28T12:53:44.372Z,1.70
2023-02-28T12:56:21.762Z,1.55
2023-02-28T12:58:53.172Z,1.60
2023-02-28T13:01:52.302Z,1.90
2023-02-28T13:04:38.845Z,1.83
2023-02-28T13:07:17.041Z,2.05
2023-02-28T13:09:54.153Z,1.88
2023-02-28T13:12:24.058Z,1.85
2023-02-28T13:14:52.469Z,1.73
2023-02-28T13:17:22.474Z,1.65
2023-02-28T13:20:00.357Z,1.40
2023-02-28T13:22:41.819Z,1.73
2023-02-28T13:25:34.534Z,1.70
2023-02-28T13:28:05.382Z,1.80
2023-02-28T13:30:51.810Z,1.70
2023-02-28T13:33:31.908Z,1.90
2023-02-28T13:36:18.669Z,1.40
2023-02-28T13:38:47.533Z,1.67
2023-02-28T13:41:30.923Z,1.77
2023-02-28T13:44:08.058Z,1.58
2023-02-28T13:46:51.902Z,1.90
2023-02-28T13:49:35.214Z,1.42
2023-02-28T13:52:17.607Z,1.35
2023-02-28T13:54:51.776Z,1.80
2023-02-28T13:57:31.771Z,1.65
2023-02-28T14:00:19.282Z,1.90
2023-02-28T14:02:50.167Z,1.60
2023-02-28T14:05:22.836Z,2.00
2023-02-28T14:07:59.490Z,1.38
2023-02-28T14:10:45.886Z,1.48
2023-02-28T14:13:35.015Z,1.77
2023-02-28T14:16:08.317Z,1.40
2023-02-28T14:18:38.165Z,1.92
2023-02-28T14:21:44.693Z,2.07
2023-02-28T14:24:44.524Z,1.60
2023-02-28T14:27:15.365Z,1.83
2023-02-28T14:29:52.670Z,1.95
2023-02-28T14:32:33.007Z,1.40
2023-02-28T14:35:25.557Z,1.65
2023-02-28T14:37:54.042Z,1.48
2023-02-28T14:40:28.043Z,1.42
2023-02-28T14:43:04.261Z,1.30
2023-02-28T14:45:34.176Z,1.60
2023-02-28T14:48:03.406Z,1.43
2023-02-28T14:50:36.770Z,1.40
2023-02-28T14:53:05.509Z,1.98
2023-02-28T14:55:35.782Z,1.40
2023-02-28T14:58:07.862Z,1.30
2023-02-28T15:00:40.994Z,1.60
2023-02-28T15:03:31.413Z,1.65
2023-02-28T15:06:08.317Z,1.80
2023-02-28T15:08:39.041Z,1.55
2023-02-28T15:11:10.589Z,1.33
2023-02-28T15:13:47.728Z,1.30
2023-02-28T15:16:22.103Z,1.40
2023-02-28T15:18:57.347Z,1.20
2023-02-28T15:21:29.796Z,1.50
2023-02-28T15:24:01.146Z,1.63
2023-02-28T15:26:40.524Z,1.98
2023-02-28T15:29:14.737Z,1.30
2023-02-28T15:31:57.394Z,2.22
2023-02-28T15:34:43.122Z,1.40
2023-02-28T15:37:41.954Z,1.20
2023-02-28T15:40:33.018Z,1.48
2023-02-28T15:43:28.776Z,1.60
2023-02-28T15:46:10.962Z,1.52
2023-02-28T15:48:46.238Z,1.63
2023-02-28T15:51:21.147Z,1.33
2023-02-28T15:54:01.835Z,1.55
2023-02-28T15:56:44.676Z,1.58
2023-02-28T15:59:31.357Z,1.70
2023-02-28T16:02:05.476Z,1.83
2023-02-28T16:04:33.597Z,1.58
2023-02-28T16:07:02.460Z,1.70
2023-02-28T16:09:34.297Z,1.63
2023-02-28T16:12:04.375Z,1.67
2023-02-28T16:14:32.827Z,1.75
2023-02-28T16:17:10.155Z,1.95
2023-02-28T16:19:38.327Z,1.70
2023-02-28T16:22:06.418Z,1.73
2023-02-28T16:24:34.525Z,1.73
2023-02-28T16:27:02.592Z,5.80
2023-02-28T16:29:36.415Z,2.00
2023-02-28T16:32:07.703Z,1.75
2023-02-28T16:34:35.855Z,1.58
2023-02-28T16:37:04.034Z,1.52
2023-02-28T16:39:31.965Z,1.75
2023-02-28T16:41:59.935Z,1.75
2023-02-28T16:44:31.678Z,1.60
2023-02-28T16:47:02.290Z,1.52
2023-02-28T16:49:30.645Z,1.48
2023-02-28T16:51:58.597Z,2.03
2023-02-28T16:54:27.867Z,2.20
2023-02-28T16:56:55.990Z,2.25
2023-02-28T16:59:25.978Z,1.80
2023-02-28T17:01:54.325Z,1.85
2023-02-28T17:04:22.209Z,1.83
2023-02-28T17:06:50.114Z,1.77
2023-02-28T17:09:28.311Z,1.90
2023-02-28T17:11:59.096Z,1.90
2023-02-28T17:14:26.978Z,1.75
2023-02-28T17:16:54.996Z,2.20
2023-02-28T17:19:25.475Z,2.22
2023-02-28T17:21:54.038Z,1.90
2023-02-28T17:24:30.250Z,1.90
2023-02-28T17:27:01.838Z,1.75
2023-02-28T17:29:30.250Z,2.43
2023-02-28T17:32:00.810Z,2.28
2023-02-28T17:34:32.129Z,2.25
2023-02-28T17:37:00.174Z,2.42
2023-02-28T17:39:28.392Z,1.80
2023-02-28T17:41:57.136Z,1.98
2023-02-28T17:44:26.161Z,2.58
2023-02-28T17:46:56.103Z,1.90
2023-02-28T17:49:24.440Z,2.08
2023-02-28T17:51:53.002Z,1.95
2023-02-28T17:54:21.219Z,2.20
2023-02-28T17:56:49.468Z,2.33
2023-02-28T17:59:17.388Z,2.10
2023-02-28T18:01:45.252Z,2.30
2023-02-28T18:04:13.365Z,1.73
2023-02-28T18:06:51.192Z,2.17
2023-02-28T18:09:24.464Z,2.00
2023-02-28T18:11:53.541Z,2.10
2023-02-28T18:14:24.673Z,2.08
2023-02-28T18:16:53.759Z,1.95
2023-02-28T18:19:21.871Z,2.47
2023-02-28T18:21:51.705Z,2.40
2023-02-28T18:24:23.200Z,2.20
2023-02-28T18:26:51.705Z,2.83
2023-02-28T18:29:25.198Z,2.22
2023-02-28T18:31:54.246Z,2.30
2023-02-28T18:34:23.620Z,2.42
2023-02-28T18:36:53.462Z,2.97
2023-02-28T18:39:21.634Z,2.42
2023-02-28T18:41:49.694Z,2.63
2023-02-28T18:44:20.314Z,2.25
2023-02-28T18:46:49.941Z,3.20
2023-02-28T18:49:18.735Z,3.35
2023-02-28T18:51:46.937Z,2.42
2023-02-28T18:54:16.038Z,3.65
2023-02-28T18:56:46.004Z,3.17
2023-02-28T18:59:14.413Z,2.58
2023-02-28T19:01:42.693Z,2.70
2023-02-28T19:04:14.204Z,3.10
2023-02-28T19:06:42.567Z,2.63
2023-02-28T19:09:10.833Z,2.75
2023-02-28T19:11:38.929Z,2.70
2023-02-28T19:14:09.991Z,2.67
2023-02-28T19:16:38.108Z,2.17
2023-02-28T19:19:06.125Z,2.70
2023-02-28T19:21:36.988Z,2.85
2023-02-28T19:24:05.970Z,2.42
2023-02-28T19:26:34.090Z,2.50
2023-02-28T19:29:04.505Z,2.47
2023-02-28T19:31:35.793Z,2.58
2023-02-28T19:34:03.861Z,2.58
2023-02-28T19:36:32.028Z,2.75
2023-02-28T19:39:00.252Z,2.70
2023-02-28T19:41:28.329Z,2.47
2023-02-28T19:43:56.299Z,2.42
2023-02-28T19:46:24.041Z,2.30
2023-02-28T19:48:54.738Z,2.55
2023-02-28T19:51:23.422Z,2.80
2023-02-28T19:53:51.566Z,2.40
2023-02-28T19:56:19.770Z,2.20
2023-02-28T19:58:47.823Z,2.30
2023-02-28T20:01:18.371Z,2.17
2023-02-28T20:03:57.204Z,2.28
2023-02-28T20:06:25.358Z,2.33
2023-02-28T20:08:57.862Z,2.40
2023-02-28T20:11:26.202Z,2.38
2023-02-28T20:13:54.946Z,2.50
2023-02-28T20:16:23.212Z,2.42
2023-02-28T20:18:52.232Z,2.63
2023-02-28T20:21:20.148Z,2.50
2023-02-28T20:23:51.338Z,2.80
2023-02-28T20:26:20.513Z,2.33
2023-02-28T20:28:49.319Z,2.95
2023-02-28T20:31:19.886Z,2.53
2023-02-28T20:33:49.679Z,2.80
2023-02-28T20:36:20.775Z,2.25
2023-02-28T20:38:48.848Z,2.25
2023-02-28T20:41:17.260Z,2.33
2023-02-28T20:43:46.004Z,3.03
2023-02-28T20:46:14.613Z,2.35
2023-02-28T20:48:42.666Z,2.53
2023-02-28T20:51:11.085Z,2.55
2023-02-28T20:53:41.794Z,2.95
2023-02-28T20:56:25.755Z,2.47
2023-02-28T20:58:56.340Z,1.92
2023-02-28T21:01:26.424Z,2.20
2023-02-28T21:04:08.338Z,2.78
2023-02-28T21:06:43.440Z,2.50
2023-02-28T21:09:12.533Z,2.67
2023-02-28T21:11:40.810Z,2.40
2023-02-28T21:14:17.413Z,2.55
2023-02-28T21:16:45.416Z,2.28
2023-02-28T21:19:13.821Z,2.65
2023-02-28T21:21:44.093Z,2.55
2023-02-28T21:24:13.698Z,2.60
2023-02-28T21:26:42.818Z,1.92
2023-02-28T21:29:11.542Z,2.10
2023-02-28T21:31:40.280Z,2.50
2023-02-28T21:34:09.716Z,2.88
2023-02-28T21:36:40.336Z,2.55
2023-02-28T21:39:15.633Z,2.42
2023-02-28T21:41:43.984Z,2.53
2023-02-28T21:44:18.958Z,2.25
2023-02-28T21:46:49.289Z,2.40
2023-02-28T21:49:17.635Z,2.47
2023-02-28T21:51:46.002Z,2.95
2023-02-28T21:54:17.020Z,2.30
2023-02-28T21:56:45.090Z,2.50
2023-02-28T21:59:13.133Z,2.45
2023-02-28T22:01:45.646Z,2.40
2023-02-28T22:04:22.381Z,2.58
2023-02-28T22:06:57.492Z,2.47
2023-02-28T22:09:26.321Z,1.92
2023-02-28T22:11:54.352Z,2.88
2023-02-28T22:14:22.376Z,2.08
2023-02-28T22:16:53.778Z,2.45
2023-02-28T22:19:23.132Z,2.40
2023-02-28T22:21:52.029Z,2.15
2023-02-28T22:24:24.514Z,2.30
2023-02-28T22:26:53.231Z,2.25
2023-02-28T22:29:21.341Z,2.35
2023-02-28T22:31:49.402Z,1.90
2023-02-28T22:34:17.715Z,2.33
2023-02-28T22:36:45.633Z,2.30
2023-02-28T22:39:13.758Z,2.28
2023-02-28T22:41:41.708Z,2.30
2023-02-28T22:44:09.918Z,2.67
2023-02-28T22:46:37.798Z,2.83
2023-02-28T22:49:06.731Z,2.38
2023-02-28T22:51:35.495Z,2.45
2023-02-28T22:54:04.044Z,2.28
2023-02-28T22:56:32.435Z,2.50
2023-02-28T22:59:01.274Z,2.13
2023-02-28T23:01:31.623Z,2.70
2023-02-28T23:04:00.061Z,2.88
2023-02-28T23:06:34.328Z,2.05
2023-02-28T23:09:05.657Z,3.07
2023-02-28T23:11:43.478Z,2.22
2023-02-28T23:14:15.413Z,2.13
2023-02-28T23:19:33.088Z,1.83
2023-02-28T23:22:03.013Z,2.37
2023-02-28T23:24:32.917Z,2.10
2023-02-28T23:27:04.697Z,2.47
2023-02-28T23:29:33.526Z,2.65
2023-02-28T23:32:01.570Z,2.60
2023-02-28T23:34:32.476Z,2.20
2023-02-28T23:37:01.716Z,2.10
2023-02-28T23:39:30.372Z,2.40
2023-02-28T23:42:02.071Z,2.20
2023-02-28T23:44:32.399Z,1.95
2023-02-28T23:47:01.091Z,2.07
2023-02-28T23:49:29.107Z,2.43
2023-02-28T23:51:57.824Z,2.60
2023-02-28T23:54:25.620Z,2.10
2023-02-28T23:56:54.518Z,2.60
2023-02-28T23:59:22.391Z,2.00
